Pagina principale
METAR-TAF:

METAR-TAF

Aeroporti :

Aeroporto di Rivolto

Udine, Italia

latitudine: 45-59N, longitudine: 013-02E, altezza: 51 m

Osservazione

Il bollettino è stato emesso 34 minuti fa, alle 10:55 UTC
Vento 12 kt da nord-est
Temperature 5°C
Umidità 38%
Pressione 1037 hPa
Visibilità 10 km o più
nessuna nube inferiore a 1500 m e nessun cumulonembo

METAR: LIPI 091055Z 04012KT CAVOK 05/M08 Q1037 RMK SKC VIS MIN 9999 WIND THR06 07012KT WIND THR24 07012KT BLU

Ora: 12:29 (11:29 UTC)

Previsione

Il bollettino è stato emesso 3 ore e 29 minuti fa, alle 08:00 UTC
Previsione valida dal 09 alle 09 UTC al 09 alle 18 UTC
Vento 8 kt da nord-est
Visibilità 10 km o più
nessuna nube inferiore a 1500 m e nessun cumulonembo

TAF: LIPI 090800Z 0909/0918 04008KT CAVOK

Osservazioni e previsioni meteorologiche di più di 4000 aeroporti (messaggi METAR e TAF).

Le stazioni disponibili sono rappresentate dai dischi gialli e rossi sulla carta.

Puntare il mouse per vedere il nome della stazione.

Clicca sopra per visualizzare le osservazioni e previsioni meteorologiche.

Per cambiare la mappa : fare clic sui pulsanti verdi con una croce nera per ingrandire, il pulsante verde con un trattino per diminuire, o sulla freccia verde per le mappe adiacenti.


METAR-TAF: